Time;durP1;ratioP1;P1;durP2;ratioP2;P2;SDS_P1;SDS_P2;PMS_P1;PMS_P2;Temp;Humidity;BMP_temperature;BMP_pressure;BME280_temperature;BME280_humidity;BME280_pressure;Samples;Min_cycle;Max_cycle;Signal;HPM_P1;HPM_P2
2022/01/25 00:25:58;;;;;;;;;;;;;;;-3.23;100.00;101748.25;5013259;28;19967;-66
2022/01/25 00:31:17;;;;;;;;;;;;;;;-3.28;100.00;101753.72;5013620;28;19914;-64
2022/01/25 00:33:51;;;;;;;;;;;;;;;-3.23;100.00;101747.38;5013161;28;19916;-64
2022/01/25 00:36:18;;;;;;;;;;;;;;;-3.29;100.00;101750.38;5013638;28;19953;-64
2022/01/25 00:38:44;;;;;;;;;;;;;;;-3.52;100.00;101748.22;5013293;28;19916;-64
2022/01/25 00:41:09;;;;;;;;;;;;;;;-3.20;100.00;101747.53;5011839;28;19917;-65
2022/01/25 00:43:35;;;;;;;;;;;;;;;-3.15;100.00;101746.19;5013097;28;19918;-65
2022/01/25 00:46:05;;;;;;;;;;;;;;;-3.16;100.00;101749.41;5013344;28;19917;-65
2022/01/25 00:51:15;;;;;;;;;;;;;;;-3.12;100.00;101749.69;5012922;28;19913;-65
2022/01/25 00:54:01;;;;;;;;;;;;;;;-3.13;100.00;101747.94;5013004;28;19913;-65
2022/01/25 00:56:29;;;;;;;;;;;;;;;-3.13;100.00;101747.13;5012993;28;19956;-65
2022/01/25 00:58:55;;;;;;;;;;;;;;;-2.98;100.00;101743.84;5011171;28;19967;-64
2022/01/25 01:01:39;;;;;;;;;;;;;;;-3.19;100.00;101734.34;5132392;23;20337;-64
2022/01/25 01:04:05;;;;;;;;;;;;;;;-3.14;100.00;101736.31;4315394;28;10000703;-65
2022/01/25 01:06:30;;;;;;;;;;;;;;;-2.96;100.00;101726.50;5009174;28;19921;-65
2022/01/25 01:08:56;;;;;;;;;;;;;;;-3.09;100.00;101727.47;5009041;28;20348;-65
2022/01/25 01:11:29;;;;;;;;;;;;;;;-3.00;100.00;101719.66;5009328;28;20301;-66
2022/01/25 01:48:41;;;;;;;;;;;;;;;-2.81;98.63;101687.50;5008492;28;19924;-67
2022/01/25 01:51:21;;;;;;;;;;;;;;;-2.91;99.38;101681.19;5008340;28;19940;-67
2022/01/25 01:53:46;;;;;;;;;;;;;;;-2.87;nan;101689.66;5008823;28;19913;-66
2022/01/25 01:56:12;;;;;;;;;;;;;;;-2.59;95.08;101685.38;5008597;28;20350;-67
2022/01/25 01:58:38;;;;;;;;;;;;;;;-2.88;94.90;101686.34;5008501;28;20338;-66
2022/01/25 02:01:06;;;;;;;;;;;;;;;-2.69;92.80;101688.16;5008559;28;20685;-68
2022/01/25 02:03:31;;;;;;;;;;;;;;;-2.74;95.99;101677.13;4997273;28;19924;-66
2022/01/25 02:05:56;;;;;;;;;;;;;;;-2.79;95.80;101679.38;4988985;28;19918;-66
2022/01/25 02:08:22;;;;;;;;;;;;;;;-3.06;97.02;101677.03;4988875;28;19918;-68
2022/01/25 02:10:47;;;;;;;;;;;;;;;-2.86;99.10;101671.50;4987440;28;20365;-64
2022/01/25 02:13:13;;;;;;;;;;;;;;;-2.90;98.99;101674.59;4989083;28;19977;-66
2022/01/25 02:15:40;;;;;;;;;;;;;;;-3.15;100.00;101669.09;4987814;28;20368;-64
2022/01/25 02:23:38;;;;;;;;;;;;;;;-2.72;100.00;101659.03;5007695;28;20016;-66
2022/01/25 02:26:04;;;;;;;;;;;;;;;-2.99;100.00;101659.22;5006129;28;20385;-66
2022/01/25 02:28:32;;;;;;;;;;;;;;;-3.21;100.00;101653.84;5007591;28;19921;-67
2022/01/25 02:30:57;;;;;;;;;;;;;;;-2.76;100.00;101652.19;5007785;28;19984;-66
2022/01/25 02:33:23;;;;;;;;;;;;;;;-2.94;100.00;101656.19;5007982;28;19921;-67
2022/01/25 02:35:48;;;;;;;;;;;;;;;-2.96;100.00;101649.41;5008148;28;19921;-66
2022/01/25 02:38:19;;;;;;;;;;;;;;;-3.22;100.00;101650.50;5007046;28;19980;-64
2022/01/25 02:40:44;;;;;;;;;;;;;;;-3.01;99.66;101646.66;5007578;28;20020;-66
2022/01/25 02:43:09;;;;;;;;;;;;;;;-2.94;99.78;101641.25;5007835;28;20020;-66
2022/01/25 02:45:36;;;;;;;;;;;;;;;-3.11;98.58;101646.94;5007787;28;20667;-64
2022/01/25 02:50:48;;;;;;;;;;;;;;;-2.99;97.70;101651.75;5007565;28;20038;-64
2022/01/25 02:53:14;;;;;;;;;;;;;;;-2.93;96.91;101645.44;5007418;28;20313;-64
2022/01/25 02:55:39;;;;;;;;;;;;;;;-3.03;95.48;101632.47;5007777;28;19924;-65
2022/01/25 02:58:05;;;;;;;;;;;;;;;-2.85;95.69;101628.41;5007695;28;19922;-64
2022/01/25 03:00:31;;;;;;;;;;;;;;;-2.91;95.21;101640.56;5007695;28;19913;-64
2022/01/25 03:02:57;;;;;;;;;;;;;;;-2.80;92.49;101635.38;5001181;28;19922;-64
2022/01/25 03:05:22;;;;;;;;;;;;;;;-2.75;93.22;101631.47;4987750;28;19914;-64
2022/01/25 03:07:47;;;;;;;;;;;;;;;-2.86;93.22;101634.19;4987825;28;19924;-64
2022/01/25 03:10:13;;;;;;;;;;;;;;;-2.95;92.92;101629.56;4988023;28;19914;-64
2022/01/25 03:17:45;;;;;;;;;;;;;;;-2.79;91.06;101626.25;4988008;28;19921;-64
2022/01/25 03:20:18;;;;;;;;;;;;;;;-2.94;92.07;101618.00;4987388;28;19913;-64
2022/01/25 03:22:59;;;;;;;;;;;;;;;-2.88;94.13;101623.31;4987953;28;19921;-64
2022/01/25 03:25:25;;;;;;;;;;;;;;;-2.89;93.18;101621.56;4987650;28;19917;-65
2022/01/25 03:27:51;;;;;;;;;;;;;;;-2.81;89.67;101625.31;4986139;28;19917;-64
2022/01/25 03:30:16;;;;;;;;;;;;;;;-2.90;92.97;101618.25;4987612;28;20403;-65
2022/01/25 03:32:41;;;;;;;;;;;;;;;-2.85;93.53;101620.97;4987752;28;19917;-65
2022/01/25 03:35:07;;;;;;;;;;;;;;;-3.04;95.60;101628.25;4987913;28;19914;-64
2022/01/25 03:37:32;;;;;;;;;;;;;;;-3.00;95.34;101622.66;5006775;28;19975;-64
2022/01/25 03:39:57;;;;;;;;;;;;;;;-3.07;95.57;101628.09;5007661;28;20012;-65
2022/01/25 03:42:24;;;;;;;;;;;;;;;-3.19;95.89;101628.28;5007513;28;19920;-65
2022/01/25 03:44:50;;;;;;;;;;;;;;;-3.10;96.91;101616.34;5007390;28;19909;-65
2022/01/25 03:47:19;;;;;;;;;;;;;;;-2.88;99.93;101616.72;5005738;28;19924;-66
2022/01/25 03:49:49;;;;;;;;;;;;;;;-3.32;99.81;101620.09;5008064;28;20421;-66
2022/01/25 03:52:16;;;;;;;;;;;;;;;-3.12;98.63;101619.53;5010663;28;20456;-65
2022/01/25 03:54:41;;;;;;;;;;;;;;;-3.38;98.42;101617.28;5011031;28;19917;-64
2022/01/25 03:57:07;;;;;;;;;;;;;;;-3.22;99.51;101617.31;5010853;28;19917;-65
2022/01/25 03:59:32;;;;;;;;;;;;;;;-3.25;100.00;101614.69;5010568;28;20092;-64
2022/01/25 04:01:57;;;;;;;;;;;;;;;-3.32;99.77;101608.53;5010063;28;19917;-65
2022/01/25 04:04:25;;;;;;;;;;;;;;;-3.36;100.00;101608.28;5009716;28;19930;-65
2022/01/25 04:06:53;;;;;;;;;;;;;;;-3.32;99.57;101600.19;5010286;28;20367;-66
2022/01/25 04:09:18;;;;;;;;;;;;;;;-3.18;98.44;101606.75;5010471;28;19926;-63
2022/01/25 04:11:44;;;;;;;;;;;;;;;-3.16;97.65;101610.19;5008346;28;19949;-64
2022/01/25 04:14:09;;;;;;;;;;;;;;;-3.13;96.74;101617.81;5008423;28;19917;-64
2022/01/25 04:16:41;;;;;;;;;;;;;;;-2.95;97.60;101611.34;5010216;28;19975;-64
2022/01/25 04:19:14;;;;;;;;;;;;;;;-3.04;96.11;101610.84;5010080;28;19917;-64
2022/01/25 04:26:51;;;;;;;;;;;;;;;-2.98;96.58;101596.25;5009464;28;19940;-64
2022/01/25 04:29:16;;;;;;;;;;;;;;;-3.00;94.50;101603.63;5009766;28;19917;-64
2022/01/25 04:31:42;;;;;;;;;;;;;;;-2.98;94.64;101597.09;5010223;28;20458;-64
2022/01/25 04:58:28;;;;;;;;;;;;;;;-3.10;96.81;101595.59;4998435;28;19917;-66
2022/01/25 05:00:54;;;;;;;;;;;;;;;-3.23;97.67;101598.22;4992266;28;19971;-64
2022/01/25 05:03:25;;;;;;;;;;;;;;;-2.98;98.15;101593.75;5024572;28;19921;-67
2022/01/25 05:06:04;;;;;;;;;;;;;;;-3.17;97.17;101594.41;5003118;28;19920;-66
2022/01/25 05:08:38;;;;;;;;;;;;;;;-3.09;95.71;101583.25;4991572;28;19925;-65
2022/01/25 05:11:16;;;;;;;;;;;;;;;-3.10;95.02;101578.19;5008806;28;20442;-65
2022/01/25 05:13:51;;;;;;;;;;;;;;;-3.06;93.66;101585.03;5012325;28;19921;-65
2022/01/25 05:16:34;;;;;;;;;;;;;;;-3.14;94.45;101578.81;5011941;28;19924;-66
2022/01/25 05:19:25;;;;;;;;;;;;;;;-3.05;95.35;101581.78;5011474;28;19917;-66
2022/01/25 05:24:49;;;;;;;;;;;;;;;-3.08;96.73;101581.63;4998528;28;19919;-67
2022/01/25 05:27:17;;;;;;;;;;;;;;;-3.10;96.37;101578.19;4992484;28;19926;-67
2022/01/25 05:29:42;;;;;;;;;;;;;;;-2.95;97.44;101579.84;4992735;28;19913;-66
2022/01/25 05:32:07;;;;;;;;;;;;;;;-2.92;94.69;101581.63;5009001;28;19936;-66
2022/01/25 05:34:33;;;;;;;;;;;;;;;-2.80;93.88;101580.66;5012131;28;20014;-66
2022/01/25 05:36:58;;;;;;;;;;;;;;;-4.72;100.00;101589.00;5010969;28;20032;-65
2022/01/25 05:39:31;;;;;;;;;;;;;;;-5.22;100.00;101586.72;5012391;28;19923;-64
2022/01/25 05:42:01;;;;;;;;;;;;;;;-5.49;100.00;101584.31;5011895;28;20319;-64
2022/01/25 05:44:40;;;;;;;;;;;;;;;-5.38;100.00;101593.22;5012320;28;19913;-65
2022/01/25 05:47:06;;;;;;;;;;;;;;;-5.47;100.00;101592.66;5010413;28;19917;-67
2022/01/25 05:49:37;;;;;;;;;;;;;;;-5.38;100.00;101584.94;5010614;28;19937;-64
2022/01/25 05:52:06;;;;;;;;;;;;;;;-5.65;100.00;101595.63;5012257;28;20487;-65
2022/01/25 05:54:31;;;;;;;;;;;;;;;-5.58;100.00;101596.09;5010429;28;19913;-65
2022/01/25 05:56:57;;;;;;;;;;;;;;;-5.57;100.00;101604.38;5011334;28;20402;-67
2022/01/25 05:59:23;;;;;;;;;;;;;;;-5.49;100.00;101596.69;5008887;28;19929;-66
2022/01/25 06:01:49;;;;;;;;;;;;;;;-5.50;100.00;101606.47;5010031;28;19914;-68
2022/01/25 06:04:14;;;;;;;;;;;;;;;-6.06;100.00;101600.44;5011599;28;20431;-67
2022/01/25 06:06:40;;;;;;;;;;;;;;;-5.48;100.00;101597.50;5010072;28;19921;-67
2022/01/25 06:09:05;;;;;;;;;;;;;;;-5.55;100.00;101602.88;5011121;28;20008;-67
2022/01/25 06:11:30;;;;;;;;;;;;;;;-4.79;100.00;101599.28;5011320;28;19917;-68
2022/01/25 06:13:56;;;;;;;;;;;;;;;-5.21;100.00;101595.88;5010840;28;19996;-68
2022/01/25 06:16:21;;;;;;;;;;;;;;;-4.68;100.00;101602.41;5011112;28;20445;-68
2022/01/25 06:18:46;;;;;;;;;;;;;;;-4.52;100.00;101602.53;5011928;28;19913;-68
2022/01/25 06:21:12;;;;;;;;;;;;;;;-4.73;100.00;101603.75;5012145;28;20390;-68
2022/01/25 06:23:37;;;;;;;;;;;;;;;-4.86;100.00;101604.66;5011165;28;19964;-68
2022/01/25 06:26:02;;;;;;;;;;;;;;;-4.45;100.00;101602.13;5011970;28;20343;-68
2022/01/25 06:28:28;;;;;;;;;;;;;;;-3.99;100.00;101599.00;5011326;28;19914;-68
2022/01/25 06:30:53;;;;;;;;;;;;;;;-3.62;100.00;101600.28;5011556;28;19921;-68
2022/01/25 06:33:19;;;;;;;;;;;;;;;-2.86;100.00;101597.75;5011452;28;19918;-67
2022/01/25 06:35:46;;;;;;;;;;;;;;;-2.72;100.00;101600.94;5011726;28;20387;-68
2022/01/25 06:38:11;;;;;;;;;;;;;;;-1.77;100.00;101596.59;5009796;28;19925;-65
2022/01/25 06:40:37;;;;;;;;;;;;;;;-0.81;92.29;101588.50;5011444;28;19924;-68
2022/01/25 06:43:02;;;;;;;;;;;;;;;-1.10;89.62;101590.56;5011148;28;19914;-66
2022/01/25 06:45:27;;;;;;;;;;;;;;;-2.73;98.06;101595.09;5011193;28;19913;-68
2022/01/25 06:47:53;;;;;;;;;;;;;;;-1.49;91.43;101583.78;5011207;28;19921;-66
2022/01/25 06:50:19;;;;;;;;;;;;;;;-1.96;89.81;101579.03;5011333;28;19924;-65
2022/01/25 06:52:45;;;;;;;;;;;;;;;-2.66;97.66;101578.84;5009940;28;19914;-66
2022/01/25 06:55:12;;;;;;;;;;;;;;;-3.17;100.00;101576.19;5010020;28;19921;-66
2022/01/25 06:57:38;;;;;;;;;;;;;;;-3.35;100.00;101580.16;5009773;28;19921;-66
2022/01/25 07:00:05;;;;;;;;;;;;;;;-3.17;100.00;101572.03;5009685;28;19920;-66
2022/01/25 07:02:30;;;;;;;;;;;;;;;-2.95;100.00;101566.56;5011007;28;19925;-66
2022/01/25 07:04:55;;;;;;;;;;;;;;;-2.71;100.00;101566.16;5010848;28;19913;-67
2022/01/25 07:07:20;;;;;;;;;;;;;;;-3.02;100.00;101562.03;5010670;28;19971;-67
2022/01/25 07:09:46;;;;;;;;;;;;;;;-2.55;100.00;101560.31;5011321;28;19913;-68
2022/01/25 07:12:11;;;;;;;;;;;;;;;-2.58;100.00;101554.34;5010753;28;19967;-67
2022/01/25 07:14:36;;;;;;;;;;;;;;;-1.88;100.00;101547.88;5010886;28;19917;-67
2022/01/25 07:17:02;;;;;;;;;;;;;;;-1.35;96.71;101549.47;5011126;28;19920;-68
2022/01/25 07:19:27;;;;;;;;;;;;;;;-1.49;99.75;101546.38;5010739;28;19924;-67
2022/01/25 07:21:52;;;;;;;;;;;;;;;-1.21;97.14;101550.97;5010732;28;19914;-68
2022/01/25 07:24:18;;;;;;;;;;;;;;;-1.02;94.09;101555.97;5010961;28;20314;-66
2022/01/25 07:26:43;;;;;;;;;;;;;;;-1.67;98.18;101557.13;5014598;28;19956;-68
2022/01/25 07:29:08;;;;;;;;;;;;;;;-2.43;100.00;101555.09;5014791;28;19921;-66
2022/01/25 07:31:34;;;;;;;;;;;;;;;-2.51;100.00;101556.34;5014717;28;20314;-68
2022/01/25 07:33:59;;;;;;;;;;;;;;;-2.78;100.00;101554.22;5013471;28;19921;-66
2022/01/25 07:36:25;;;;;;;;;;;;;;;-2.40;100.00;101551.16;5013040;28;20315;-66
2022/01/25 07:38:50;;;;;;;;;;;;;;;-1.86;100.00;101552.91;5014754;28;19909;-66
2022/01/25 07:41:16;;;;;;;;;;;;;;;-1.70;100.00;101552.00;5014664;28;20346;-66
2022/01/25 07:43:41;;;;;;;;;;;;;;;-1.44;100.00;101534.09;5014519;28;19920;-66
2022/01/25 07:46:06;;;;;;;;;;;;;;;-1.38;100.00;101536.84;5013132;28;20007;-66
2022/01/25 07:48:32;;;;;;;;;;;;;;;-0.79;100.00;101532.84;5014418;28;19921;-65
2022/01/25 07:50:57;;;;;;;;;;;;;;;-0.69;100.00;101527.44;5014253;28;19913;-66
2022/01/25 07:53:22;;;;;;;;;;;;;;;-0.89;94.91;101521.63;5014483;28;20411;-66
2022/01/25 07:55:48;;;;;;;;;;;;;;;-0.55;90.06;101528.00;5014563;28;20371;-65
2022/01/25 07:58:13;;;;;;;;;;;;;;;-0.46;83.58;101533.41;5013110;28;19913;-66
2022/01/25 08:00:38;;;;;;;;;;;;;;;-0.44;81.32;101525.19;5014280;28;20493;-66
2022/01/25 08:03:04;;;;;;;;;;;;;;;-0.55;80.44;101521.38;5014218;28;20331;-66
2022/01/25 08:05:29;;;;;;;;;;;;;;;-0.40;81.77;101519.53;5012772;28;19963;-66
2022/01/25 08:07:54;;;;;;;;;;;;;;;-0.60;78.50;101524.50;5014010;28;20409;-66
2022/01/25 08:10:21;;;;;;;;;;;;;;;-0.61;77.78;101523.63;5014340;28;20380;-66
2022/01/25 08:12:47;;;;;;;;;;;;;;;-0.51;77.49;101525.72;5013997;28;20000;-67
2022/01/25 08:15:13;;;;;;;;;;;;;;;-0.73;77.91;101523.13;5014087;28;19933;-66
2022/01/25 08:17:38;;;;;;;;;;;;;;;-0.63;78.26;101529.34;5013968;28;19913;-66
2022/01/25 08:20:04;;;;;;;;;;;;;;;-0.74;77.11;101521.41;5013739;28;19920;-65
2022/01/25 08:22:29;;;;;;;;;;;;;;;-0.43;75.80;101514.41;5013581;28;19917;-67
2022/01/25 08:24:55;;;;;;;;;;;;;;;-0.58;74.63;101513.78;5013808;28;19967;-66
2022/01/25 08:27:22;;;;;;;;;;;;;;;-0.45;74.36;101512.63;5013540;28;19924;-66
2022/01/25 08:29:48;;;;;;;;;;;;;;;-0.55;74.38;101513.03;5012429;28;20370;-66
2022/01/25 08:32:13;;;;;;;;;;;;;;;-0.43;74.41;101516.91;5014178;28;19916;-66
2022/01/25 08:34:39;;;;;;;;;;;;;;;-0.66;71.98;101510.13;5013625;28;19917;-65
2022/01/25 08:37:05;;;;;;;;;;;;;;;-0.53;71.12;101511.47;5013030;28;19917;-66
2022/01/25 08:39:31;;;;;;;;;;;;;;;-0.60;70.08;101510.38;5013531;28;19909;-66
2022/01/25 08:41:56;;;;;;;;;;;;;;;-0.66;69.13;101509.25;5013431;28;19913;-65
2022/01/25 08:44:21;;;;;;;;;;;;;;;-0.51;68.08;101508.25;5013381;28;19996;-65
2022/01/25 08:46:47;;;;;;;;;;;;;;;-0.49;67.70;101504.16;5013215;28;19917;-66
2022/01/25 08:49:12;;;;;;;;;;;;;;;-0.39;66.44;101508.75;5013349;28;20008;-65
2022/01/25 08:51:37;;;;;;;;;;;;;;;-0.45;66.01;101512.63;5013033;28;20125;-65
2022/01/25 08:54:03;;;;;;;;;;;;;;;-0.45;65.64;101512.63;5011905;28;19920;-67
2022/01/25 08:56:28;;;;;;;;;;;;;;;-0.47;64.75;101512.56;5013055;28;20493;-65
2022/01/25 08:58:54;;;;;;;;;;;;;;;-0.25;64.83;101504.28;5013461;28;19914;-66
2022/01/25 09:01:20;;;;;;;;;;;;;;;-0.16;64.02;101504.69;5013054;28;19999;-65
2022/01/25 09:03:45;;;;;;;;;;;;;;;-0.35;63.23;101502.22;5012596;28;20379;-66
2022/01/25 09:06:10;;;;;;;;;;;;;;;-0.29;63.15;101499.97;5013069;28;20310;-66
2022/01/25 09:08:36;;;;;;;;;;;;;;;-0.36;62.87;101493.91;5012865;28;20004;-66
2022/01/25 09:11:04;;;;;;;;;;;;;;;-0.07;62.06;101473.41;5011280;28;19920;-66
2022/01/25 09:13:30;;;;;;;;;;;;;;;0.09;61.83;101486.47;5011517;28;19919;-65
2022/01/25 09:15:55;;;;;;;;;;;;;;;-0.07;61.66;101473.41;5013036;28;19987;-66
2022/01/25 09:18:21;;;;;;;;;;;;;;;0.23;61.17;101468.72;5012466;28;19921;-65
2022/01/25 09:20:46;;;;;;;;;;;;;;;0.16;60.56;101469.25;5012372;28;20379;-66
2022/01/25 09:23:11;;;;;;;;;;;;;;;0.05;60.20;101472.16;5012878;28;20275;-66
2022/01/25 09:25:37;;;;;;;;;;;;;;;0.20;59.86;101460.25;5012676;28;19917;-66
2022/01/25 09:28:02;;;;;;;;;;;;;;;0.10;59.47;101463.19;5012684;28;19914;-66
2022/01/25 09:30:29;;;;;;;;;;;;;;;0.54;58.84;101453.16;5012760;28;19984;-66
2022/01/25 09:32:54;;;;;;;;;;;;;;;0.29;58.44;101448.09;5012610;28;19913;-66
2022/01/25 09:35:19;;;;;;;;;;;;;;;0.18;58.10;101454.34;5012274;28;19917;-65
2022/01/25 09:37:46;;;;;;;;;;;;;;;0.40;57.77;101442.66;5012218;28;19914;-66
2022/01/25 09:40:12;;;;;;;;;;;;;;;0.35;57.38;101439.16;5012339;28;19921;-67
2022/01/25 09:42:38;;;;;;;;;;;;;;;0.49;56.02;101437.16;5012403;28;19917;-67
2022/01/25 09:45:04;;;;;;;;;;;;;;;0.53;56.71;101433.97;5011049;28;20354;-67
2022/01/25 09:47:30;;;;;;;;;;;;;;;0.65;56.20;101431.91;5011490;28;19963;-67
2022/01/25 09:49:55;;;;;;;;;;;;;;;0.64;55.45;101431.03;5012325;28;19922;-66
2022/01/25 09:52:22;;;;;;;;;;;;;;;0.92;55.18;101420.34;5012177;28;19970;-67
2022/01/25 09:54:54;;;;;;;;;;;;;;;0.97;54.33;101411.31;5011934;28;19971;-67
2022/01/25 09:57:20;;;;;;;;;;;;;;;1.00;54.41;101405.56;5010944;28;20032;-67
2022/01/25 09:59:45;;;;;;;;;;;;;;;0.79;54.10;101401.53;5011914;28;20411;-66
2022/01/25 10:02:10;;;;;;;;;;;;;;;1.15;53.85;101406.91;5012284;28;19918;-67
2022/01/25 10:04:39;;;;;;;;;;;;;;;1.28;53.56;101386.50;5011676;28;19913;-67
2022/01/25 10:07:04;;;;;;;;;;;;;;;1.13;53.15;101402.69;5010708;28;19987;-67
2022/01/25 10:09:30;;;;;;;;;;;;;;;1.30;51.99;101387.41;5012235;28;19914;-67
2022/01/25 10:11:55;;;;;;;;;;;;;;;1.24;52.14;101382.19;5011871;28;19913;-66
2022/01/25 10:14:25;;;;;;;;;;;;;;;1.32;52.54;101372.41;5011687;28;19987;-67
2022/01/25 10:16:52;;;;;;;;;;;;;;;1.47;52.00;101368.72;5011100;28;19925;-66
2022/01/25 10:19:22;;;;;;;;;;;;;;;1.37;51.98;101364.25;5011927;28;19971;-67
2022/01/25 10:21:50;;;;;;;;;;;;;;;1.93;51.61;101352.56;5011634;28;19964;-67
2022/01/25 10:24:23;;;;;;;;;;;;;;;1.65;51.54;101359.28;5011879;28;19913;-67
2022/01/25 10:26:55;;;;;;;;;;;;;;;1.84;51.56;101358.19;5011546;28;19913;-67
2022/01/25 10:29:20;;;;;;;;;;;;;;;2.24;50.41;101357.66;5011617;28;19936;-67
2022/01/25 10:31:48;;;;;;;;;;;;;;;1.57;50.14;101353.19;5011276;28;20391;-66
2022/01/25 10:34:15;;;;;;;;;;;;;;;1.64;51.34;101354.22;5011293;28;19920;-67
2022/01/25 10:36:44;;;;;;;;;;;;;;;1.61;50.79;101356.63;5010368;28;19936;-66
2022/01/25 10:39:10;;;;;;;;;;;;;;;1.61;51.06;101354.97;5011369;28;19914;-66
2022/01/25 10:41:35;;;;;;;;;;;;;;;1.81;51.96;101352.19;5011267;28;19913;-64
2022/01/25 10:44:00;;;;;;;;;;;;;;;1.75;50.98;101341.22;5011340;28;19914;-64
2022/01/25 10:46:30;;;;;;;;;;;;;;;1.84;51.24;101337.25;5011065;28;19921;-67
2022/01/25 10:48:55;;;;;;;;;;;;;;;1.46;52.22;101342.00;5011339;28;20227;-67
2022/01/25 10:51:20;;;;;;;;;;;;;;;1.64;51.70;101324.97;5011365;28;20397;-67
2022/01/25 10:53:55;;;;;;;;;;;;;;;1.58;52.38;101331.50;5011469;28;19914;-66
2022/01/25 10:56:22;;;;;;;;;;;;;;;1.66;52.51;101330.06;5011478;28;19913;-66
2022/01/25 10:58:47;;;;;;;;;;;;;;;1.72;52.90;101323.56;5012613;28;19971;-66
2022/01/25 11:01:13;;;;;;;;;;;;;;;2.10;52.15;101321.31;5017726;28;19917;-66
2022/01/25 11:03:42;;;;;;;;;;;;;;;1.56;54.04;101321.44;5017463;28;19917;-65
2022/01/25 11:06:19;;;;;;;;;;;;;;;1.81;52.83;101319.63;5016405;28;19913;-66
2022/01/25 11:08:46;;;;;;;;;;;;;;;1.59;52.83;101318.13;5017687;28;19975;-67
2022/01/25 11:11:21;;;;;;;;;;;;;;;1.71;52.33;101316.84;5017499;28;19923;-65
2022/01/25 11:13:49;;;;;;;;;;;;;;;2.25;52.05;101306.66;5017647;28;19917;-66
2022/01/25 11:16:14;;;;;;;;;;;;;;;2.18;51.52;101300.63;5017639;28;20406;-65
2022/01/25 11:18:39;;;;;;;;;;;;;;;2.38;52.09;101303.66;5017634;28;19909;-66
2022/01/25 11:21:06;;;;;;;;;;;;;;;2.25;50.59;101296.63;5017761;28;19917;-66
2022/01/25 11:23:33;;;;;;;;;;;;;;;2.58;49.85;101289.97;5017479;28;20379;-66
2022/01/25 11:25:59;;;;;;;;;;;;;;;2.26;49.52;101288.28;5017206;28;20011;-66
2022/01/25 11:28:25;;;;;;;;;;;;;;;2.33;49.82;101296.03;5016054;28;20055;-66
2022/01/25 11:30:51;;;;;;;;;;;;;;;2.14;50.37;101277.94;5016334;28;20422;-66
2022/01/25 11:33:18;;;;;;;;;;;;;;;1.93;48.98;101282.38;5017364;28;20050;-66
2022/01/25 11:35:43;;;;;;;;;;;;;;;2.26;48.76;101281.63;5017327;28;19932;-66
2022/01/25 11:38:09;;;;;;;;;;;;;;;2.18;49.30;101280.56;5017422;28;19913;-66
2022/01/25 11:40:37;;;;;;;;;;;;;;;1.86;49.93;101281.38;5016986;28;19928;-66
2022/01/25 11:43:11;;;;;;;;;;;;;;;1.72;49.42;101280.94;5017330;28;19921;-65
2022/01/25 11:45:38;;;;;;;;;;;;;;;1.93;50.16;101273.19;5017397;28;20376;-66
2022/01/25 11:48:03;;;;;;;;;;;;;;;2.12;49.17;101274.56;5017493;28;19914;-66
2022/01/25 11:50:33;;;;;;;;;;;;;;;1.85;49.38;101266.25;5015839;28;19921;-65
2022/01/25 11:53:06;;;;;;;;;;;;;;;1.91;49.18;101267.28;5017002;28;19953;-65
2022/01/25 11:55:41;;;;;;;;;;;;;;;1.95;49.09;101259.03;5017269;28;19917;-66
2022/01/25 11:58:14;;;;;;;;;;;;;;;1.93;49.99;101259.81;5017379;28;19913;-66
2022/01/25 12:00:44;;;;;;;;;;;;;;;1.64;50.71;101262.34;5017121;28;19917;-65
2022/01/25 12:03:18;;;;;;;;;;;;;;;2.18;50.48;101257.16;5017055;28;19952;-66
2022/01/25 12:05:54;;;;;;;;;;;;;;;2.07;50.87;101254.34;5015660;28;20361;-65
2022/01/25 12:08:27;;;;;;;;;;;;;;;1.99;50.10;101249.94;5017072;28;19917;-66
2022/01/25 12:10:58;;;;;;;;;;;;;;;2.61;50.27;101239.88;5014851;28;20011;-65
2022/01/25 12:13:30;;;;;;;;;;;;;;;2.52;49.89;101245.50;5013982;28;19914;-66
2022/01/25 12:16:14;;;;;;;;;;;;;;;2.97;49.08;101235.69;5013693;28;20306;-65
2022/01/25 12:18:59;;;;;;;;;;;;;;;2.98;49.86;101246.59;5014063;28;19914;-66
2022/01/25 12:21:43;;;;;;;;;;;;;;;3.13;49.56;101245.28;5013828;28;19918;-65
2022/01/25 12:24:26;;;;;;;;;;;;;;;2.66;49.17;101238.31;5013775;28;20044;-66
2022/01/25 12:29:42;;;;;;;;;;;;;;;2.86;49.62;101232.09;5014003;28;19913;-65
2022/01/25 12:32:18;;;;;;;;;;;;;;;3.52;49.23;101222.69;5013497;28;20259;-67
2022/01/25 12:35:02;;;;;;;;;;;;;;;2.73;50.33;101222.59;5013493;28;19914;-65
2022/01/25 12:37:54;;;;;;;;;;;;;;;3.04;50.46;101219.09;5013674;28;19929;-66
2022/01/25 12:40:25;;;;;;;;;;;;;;;3.87;49.72;101213.28;5007703;28;20303;-66
2022/01/25 12:42:51;;;;;;;;;;;;;;;3.75;49.47;101200.50;5013366;28;20275;-66
2022/01/25 12:45:21;;;;;;;;;;;;;;;4.10;50.05;101195.28;5013343;28;19976;-66
2022/01/25 12:48:10;;;;;;;;;;;;;;;4.69;47.33;101190.41;5013297;28;20307;-66
2022/01/25 12:50:36;;;;;;;;;;;;;;;4.28;48.94;101189.72;5013192;28;19921;-66
2022/01/25 12:53:02;;;;;;;;;;;;;;;4.33;47.39;101190.66;5013246;28;19920;-66
2022/01/25 12:55:30;;;;;;;;;;;;;;;3.92;47.67;101186.59;5012938;28;20341;-66
2022/01/25 12:57:55;;;;;;;;;;;;;;;4.94;47.59;101187.41;5013273;28;19914;-66
2022/01/25 13:00:26;;;;;;;;;;;;;;;4.57;47.58;101188.53;5013322;28;19925;-66
2022/01/25 13:02:52;;;;;;;;;;;;;;;3.75;47.36;101192.94;5012530;28;19921;-66
2022/01/25 13:05:19;;;;;;;;;;;;;;;4.09;47.30;101191.09;5012422;28;19917;-65
2022/01/25 13:07:44;;;;;;;;;;;;;;;3.93;46.45;101190.78;5013243;28;19913;-66
2022/01/25 13:10:12;;;;;;;;;;;;;;;4.14;45.45;101176.91;5012640;28;20376;-66
2022/01/25 13:12:54;;;;;;;;;;;;;;;3.46;46.89;101190.72;5012881;28;20064;-65
2022/01/25 13:15:49;;;;;;;;;;;;;;;3.92;46.42;101191.63;5012889;28;20387;-65
2022/01/25 13:18:13;;;;;;;;;;;;;;;3.61;45.81;101189.31;5012599;28;19913;-66
2022/01/25 13:20:40;;;;;;;;;;;;;;;4.48;45.88;101185.88;5012424;28;20375;-66
2022/01/25 13:23:05;;;;;;;;;;;;;;;5.39;42.05;101174.59;5011711;28;19913;-67
2022/01/25 13:25:55;;;;;;;;;;;;;;;7.25;40.71;101164.41;5012674;28;19920;-65
2022/01/25 13:30:58;;;;;;;;;;;;;;;7.85;39.08;101159.53;5012288;28;19914;-66
2022/01/25 13:33:23;;;;;;;;;;;;;;;7.44;38.73;101163.66;5011170;28;19920;-65
2022/01/25 13:35:53;;;;;;;;;;;;;;;6.53;38.97;101170.72;5012580;28;20379;-64
2022/01/25 13:38:24;;;;;;;;;;;;;;;7.41;39.40;101158.56;5012233;28;19913;-64
2022/01/25 13:46:14;;;;;;;;;;;;;;;6.15;40.42;101167.03;5012371;28;19914;-65
2022/01/25 13:48:40;;;;;;;;;;;;;;;2.79;45.34;101180.06;5011905;28;19921;-64
2022/01/25 13:51:07;;;;;;;;;;;;;;;2.84;46.95;101170.97;5012185;28;19913;-64
2022/01/25 13:53:33;;;;;;;;;;;;;;;2.46;48.64;101179.25;5012269;28;20364;-65
2022/01/25 13:56:00;;;;;;;;;;;;;;;2.44;47.85;101175.84;5011622;28;19975;-65
2022/01/25 13:58:32;;;;;;;;;;;;;;;2.33;48.45;101177.28;5012167;28;20029;-65
2022/01/25 14:00:58;;;;;;;;;;;;;;;2.53;48.10;101168.56;5012008;28;19909;-65
2022/01/25 14:03:25;;;;;;;;;;;;;;;2.34;48.07;101172.28;5011547;28;19917;-65
2022/01/25 14:05:51;;;;;;;;;;;;;;;1.89;49.12;101165.25;5011962;28;20036;-63
2022/01/25 14:08:16;;;;;;;;;;;;;;;2.30;48.52;101167.16;5011845;28;20008;-65
2022/01/25 14:10:47;;;;;;;;;;;;;;;2.42;48.06;101164.94;5011384;28;19913;-67
2022/01/25 14:24:09;;;;;;;;;;;;;;;1.84;49.40;101164.31;5011776;28;19920;-67
2022/01/25 14:26:34;;;;;;;;;;;;;;;1.77;49.63;101159.13;5011806;28;19996;-67
2022/01/25 14:29:13;;;;;;;;;;;;;;;1.96;48.92;101152.91;5011587;28;19971;-65
2022/01/25 14:31:41;;;;;;;;;;;;;;;1.62;48.73;101150.38;5011284;28;20319;-67
2022/01/25 14:34:08;;;;;;;;;;;;;;;1.95;49.38;101147.88;5011538;28;20314;-67
2022/01/25 14:36:34;;;;;;;;;;;;;;;1.61;49.76;101151.16;5011387;28;20384;-65
2022/01/25 14:39:00;;;;;;;;;;;;;;;1.75;49.52;101143.22;5011441;28;19920;-64
2022/01/25 14:41:31;;;;;;;;;;;;;;;1.90;49.58;101147.78;5011465;28;19918;-64
2022/01/25 14:43:58;;;;;;;;;;;;;;;1.59;49.29;101158.66;5011040;28;19913;-65
2022/01/25 14:46:25;;;;;;;;;;;;;;;1.60;49.40;101155.34;5011424;28;19949;-65
2022/01/25 14:49:09;;;;;;;;;;;;;;;2.55;49.71;101152.75;5011107;28;20311;-66
2022/01/25 14:51:45;;;;;;;;;;;;;;;4.71;44.64;101148.47;5011413;28;19922;-66
2022/01/25 14:54:12;;;;;;;;;;;;;;;2.91;46.62;101157.72;5011098;28;19910;-66